PWSweather.com
Personal Weather Stations
Station Observations
KCOBLACK1
Chalet Park, Black Hawk, CO 80422

Chalet ParkBlack Hawk, CO 80422

Lat: 39.8294, Lon: -105.48

Elevation: 9370

Station Type: Vantage Pro2

http://www.oscaranddeb.com/weather

High Low Average
Temperature 51.7°F10.9°F 39.5°F4.2°F 44.3°F6.8°F
Dew Point 31.3°F-0.4°F 15.2°F-9.3°F 23.3°F-4.8°F
Winds 23.2 mph W37.3 mph W 1.9 mph 3.1 mph 9.6 mph 15.4 mph
Wind Gusts 54.0 mph86.9 mph 5.0 mph8.0 mph 22.2 mph35.7 mph
Humidity 69% 25% 45%
Pressure 30.17 in1021.70 in 29.68 in1005.10 in -
Precipitation 0.00 in0.00 in - -
Hour Temp Dew Point Humidity Winds Wind Gusts Pressure Precip Precip Rate Daily Precip Total
12:00 AM 40.9°F4.9°C 31.2°F-0.4°C 68% 9.6 mph SSW15.4 kmh SSW 16.0 mph25.7 kmh 30.17 in1021.7 mb 0.00 in0.0 mm 0.00 in0.0 mm 0.01 in0.3 mm
12:05 AM 40.9°F4.9°C 30.8°F-0.7°C 67% 9.0 mph SSW14.5 kmh SSW 17.0 mph27.4 kmh 30.17 in1021.7 mb 0.00 in0.0 mm 0.00 in0.0 mm 0.00 in0.0 mm
12:10 AM 41.0°F5.0°C 30.9°F-0.6°C 67% 12.4 mph S20.0 kmh S 26.0 mph41.8 kmh 30.17 in1021.7 mb 0.00 in0.0 mm 0.00 in0.0 mm 0.00 in0.0 mm
12:15 AM 41.2°F5.1°C 31.1°F-0.5°C 67% 8.7 mph S14.0 kmh S 26.0 mph41.8 kmh 30.17 in1021.7 mb 0.00 in0.0 mm 0.00 in0.0 mm 0.00 in0.0 mm
12:20 AM 41.3°F5.2°C 31.2°F-0.4°C 67% 4.6 mph S7.4 kmh S 18.0 mph29.0 kmh 30.16 in1021.3 mb 0.00 in0.0 mm 0.00 in0.0 mm 0.00 in0.0 mm
12:25 AM 41.2°F5.1°C 31.1°F-0.5°C 67% 6.8 mph S10.9 kmh S 17.0 mph27.4 kmh 30.16 in1021.3 mb 0.00 in0.0 mm 0.00 in0.0 mm 0.00 in0.0 mm
12:30 AM 41.0°F5.0°C 30.9°F-0.6°C 67% 5.9 mph S9.5 kmh S 17.0 mph27.4 kmh 30.16 in1021.3 mb 0.00 in0.0 mm 0.00 in0.0 mm 0.00 in0.0 mm
12:35 AM 41.0°F5.0°C 31.3°F-0.4°C 68% 9.6 mph SSW15.4 kmh SSW 22.0 mph35.4 kmh 30.16 in1021.3 mb 0.00 in0.0 mm 0.00 in0.0 mm 0.00 in0.0 mm
12:40 AM 40.9°F4.9°C 31.2°F-0.4°C 68% 3.9 mph SW6.3 kmh SW 22.0 mph35.4 kmh 30.16 in1021.3 mb 0.00 in0.0 mm 0.00 in0.0 mm 0.00 in0.0 mm
12:45 AM 40.7°F4.8°C 31.0°F-0.6°C 68% 5.9 mph S9.5 kmh S 15.0 mph24.1 kmh 30.16 in1021.3 mb 0.00 in0.0 mm 0.00 in0.0 mm 0.00 in0.0 mm
12:50 AM 40.7°F4.8°C 31.0°F-0.6°C 68% 3.7 mph SSW6.0 kmh SSW 15.0 mph24.1 kmh 30.16 in1021.3 mb 0.00 in0.0 mm 0.00 in0.0 mm 0.00 in0.0 mm
12:55 AM 40.4°F4.7°C 31.0°F-0.6°C 69% 6.4 mph SW10.3 kmh SW 13.0 mph20.9 kmh 30.15 in1021.0 mb 0.00 in0.0 mm 0.00 in0.0 mm 0.00 in0.0 mm
01:00 AM 40.4°F4.7°C 31.0°F-0.6°C 69% 4.6 mph WSW7.4 kmh WSW 13.0 mph20.9 kmh 30.16 in1021.3 mb 0.00 in0.0 mm 0.00 in0.0 mm 0.00 in0.0 mm
01:05 AM 40.6°F4.8°C 31.2°F-0.4°C 69% 6.5 mph S10.5 kmh S 15.0 mph24.1 kmh 30.15 in1021.0 mb 0.00 in0.0 mm 0.00 in0.0 mm 0.00 in0.0 mm
01:10 AM 40.6°F4.8°C 30.9°F-0.6°C 68% 5.4 mph S8.7 kmh S 15.0 mph24.1 kmh 30.15 in1021.0 mb 0.00 in0.0 mm 0.00 in0.0 mm 0.00 in0.0 mm
01:15 AM 40.6°F4.8°C 30.9°F-0.6°C 68% 2.3 mph SW3.7 kmh SW 10.0 mph16.1 kmh 30.15 in1021.0 mb 0.00 in0.0 mm 0.00 in0.0 mm 0.00 in0.0 mm
01:20 AM 40.4°F4.7°C 30.7°F-0.7°C 68% 2.8 mph WNW4.5 kmh WNW 8.0 mph12.9 kmh 30.15 in1021.0 mb 0.00 in0.0 mm 0.00 in0.0 mm 0.00 in0.0 mm
01:25 AM 40.3°F4.6°C 30.6°F-0.8°C 68% 2.9 mph S4.7 kmh S 7.0 mph11.3 kmh 30.15 in1021.0 mb 0.00 in0.0 mm 0.00 in0.0 mm 0.00 in0.0 mm
01:30 AM 40.3°F4.6°C 30.6°F-0.8°C 68% 5.0 mph SSE8.0 kmh SSE 10.0 mph16.1 kmh 30.16 in1021.3 mb 0.00 in0.0 mm 0.00 in0.0 mm 0.00 in0.0 mm
01:35 AM 40.3°F4.6°C 30.2°F-1.0°C 67% 5.0 mph S8.0 kmh S 10.0 mph16.1 kmh 30.16 in1021.3 mb 0.00 in0.0 mm 0.00 in0.0 mm 0.00 in0.0 mm
01:40 AM 40.5°F4.7°C 30.0°F-1.1°C 66% 4.7 mph S7.6 kmh S 10.0 mph16.1 kmh 30.16 in1021.3 mb 0.00 in0.0 mm 0.00 in0.0 mm 0.00 in0.0 mm
01:45 AM 40.7°F4.8°C 29.9°F-1.2°C 65% 1.9 mph SW3.1 kmh SW 9.0 mph14.5 kmh 30.17 in1021.7 mb 0.00 in0.0 mm 0.00 in0.0 mm 0.00 in0.0 mm
01:50 AM 40.9°F4.9°C 29.7°F-1.3°C 64% 3.5 mph SW5.6 kmh SW 7.0 mph11.3 kmh 30.16 in1021.3 mb 0.00 in0.0 mm 0.00 in0.0 mm 0.00 in0.0 mm
01:55 AM 40.8°F4.9°C 29.6°F-1.3°C 64% 5.6 mph SSW9.0 kmh SSW 12.0 mph19.3 kmh 30.16 in1021.3 mb 0.00 in0.0 mm 0.00 in0.0 mm 0.00 in0.0 mm
02:00 AM 40.4°F4.7°C 30.0°F-1.1°C 66% 5.1 mph SW8.2 kmh SW 12.0 mph19.3 kmh 30.16 in1021.3 mb 0.00 in0.0 mm 0.00 in0.0 mm 0.00 in0.0 mm
02:05 AM 40.2°F4.6°C 30.1°F-1.1°C 67% 5.5 mph WSW8.9 kmh WSW 14.0 mph22.5 kmh 30.16 in1021.3 mb 0.00 in0.0 mm 0.00 in0.0 mm 0.00 in0.0 mm
02:10 AM 40.2°F4.6°C 30.1°F-1.1°C 67% 5.5 mph SW8.9 kmh SW 14.0 mph22.5 kmh 30.16 in1021.3 mb 0.00 in0.0 mm 0.00 in0.0 mm 0.00 in0.0 mm
02:15 AM 40.2°F4.6°C 30.1°F-1.1°C 67% 6.0 mph SW9.7 kmh SW 17.0 mph27.4 kmh 30.16 in1021.3 mb 0.00 in0.0 mm 0.00 in0.0 mm 0.00 in0.0 mm
02:20 AM 40.3°F4.6°C 29.9°F-1.2°C 66% 5.1 mph SW8.2 kmh SW 17.0 mph27.4 kmh 30.15 in1021.0 mb 0.00 in0.0 mm 0.00 in0.0 mm 0.00 in0.0 mm
02:25 AM 40.4°F4.7°C 30.0°F-1.1°C 66% 5.0 mph SW8.0 kmh SW 15.0 mph24.1 kmh 30.15 in1021.0 mb 0.00 in0.0 mm 0.00 in0.0 mm 0.00 in0.0 mm
02:30 AM 40.2°F4.6°C 29.8°F-1.2°C 66% 3.4 mph S5.5 kmh S 11.0 mph17.7 kmh 30.16 in1021.3 mb 0.00 in0.0 mm 0.00 in0.0 mm 0.00 in0.0 mm
02:35 AM 40.2°F4.6°C 29.8°F-1.2°C 66% 7.6 mph SE12.2 kmh SE 14.0 mph22.5 kmh 30.15 in1021.0 mb 0.00 in0.0 mm 0.00 in0.0 mm 0.00 in0.0 mm
02:40 AM 40.3°F4.6°C 29.5°F-1.4°C 65% 6.7 mph S10.8 kmh S 15.0 mph24.1 kmh 30.16 in1021.3 mb 0.00 in0.0 mm 0.00 in0.0 mm 0.00 in0.0 mm
02:45 AM 40.3°F4.6°C 29.5°F-1.4°C 65% 4.6 mph SE7.4 kmh SE 15.0 mph24.1 kmh 30.16 in1021.3 mb 0.00 in0.0 mm 0.00 in0.0 mm 0.00 in0.0 mm
02:50 AM 40.3°F4.6°C 29.5°F-1.4°C 65% 5.3 mph S8.5 kmh S 12.0 mph19.3 kmh 30.15 in1021.0 mb 0.00 in0.0 mm 0.00 in0.0 mm 0.00 in0.0 mm
02:55 AM 40.2°F4.6°C 29.8°F-1.2°C 66% 6.6 mph WSW10.6 kmh WSW 15.0 mph24.1 kmh 30.15 in1021.0 mb 0.00 in0.0 mm 0.00 in0.0 mm 0.00 in0.0 mm
03:00 AM 40.2°F4.6°C 29.4°F-1.4°C 65% 7.7 mph WSW12.4 kmh WSW 22.0 mph35.4 kmh 30.15 in1021.0 mb 0.00 in0.0 mm 0.00 in0.0 mm 0.00 in0.0 mm
03:05 AM 40.1°F4.5°C 29.7°F-1.3°C 66% 5.3 mph WSW8.5 kmh WSW 22.0 mph35.4 kmh 30.16 in1021.3 mb 0.00 in0.0 mm 0.00 in0.0 mm 0.00 in0.0 mm
03:10 AM 40.0°F4.4°C 29.6°F-1.3°C 66% 4.4 mph WSW7.1 kmh WSW 11.0 mph17.7 kmh 30.15 in1021.0 mb 0.00 in0.0 mm 0.00 in0.0 mm 0.00 in0.0 mm
03:15 AM 39.9°F4.4°C 29.5°F-1.4°C 66% 7.7 mph SW12.4 kmh SW 20.0 mph32.2 kmh 30.13 in1020.3 mb 0.00 in0.0 mm 0.00 in0.0 mm 0.00 in0.0 mm
03:20 AM 40.2°F4.6°C 29.4°F-1.4°C 65% 9.6 mph W15.4 kmh W 24.0 mph38.6 kmh 30.15 in1021.0 mb 0.00 in0.0 mm 0.00 in0.0 mm 0.00 in0.0 mm
03:25 AM 40.4°F4.7°C 29.6°F-1.3°C 65% 10.0 mph W16.1 kmh W 24.0 mph38.6 kmh 30.14 in1020.7 mb 0.00 in0.0 mm 0.00 in0.0 mm 0.00 in0.0 mm
03:30 AM 40.3°F4.6°C 29.5°F-1.4°C 65% 13.6 mph WSW21.9 kmh WSW 24.0 mph38.6 kmh 30.13 in1020.3 mb 0.00 in0.0 mm 0.00 in0.0 mm 0.00 in0.0 mm
03:35 AM 40.3°F4.6°C 29.9°F-1.2°C 66% 15.9 mph W25.6 kmh W 28.0 mph45.1 kmh 30.13 in1020.3 mb 0.00 in0.0 mm 0.00 in0.0 mm 0.00 in0.0 mm
03:40 AM 40.2°F4.6°C 29.8°F-1.2°C 66% 10.7 mph WSW17.2 kmh WSW 28.0 mph45.1 kmh 30.12 in1020.0 mb 0.00 in0.0 mm 0.00 in0.0 mm 0.00 in0.0 mm
03:45 AM 40.2°F4.6°C 29.8°F-1.2°C 66% 13.8 mph W22.2 kmh W 34.0 mph54.7 kmh 30.12 in1020.0 mb 0.00 in0.0 mm 0.00 in0.0 mm 0.00 in0.0 mm
03:50 AM 40.3°F4.6°C 29.9°F-1.2°C 66% 14.6 mph WSW23.5 kmh WSW 34.0 mph54.7 kmh 30.12 in1020.0 mb 0.00 in0.0 mm 0.00 in0.0 mm 0.00 in0.0 mm
03:55 AM 40.3°F4.6°C 29.9°F-1.2°C 66% 14.3 mph WSW23.0 kmh WSW 26.0 mph41.8 kmh 30.13 in1020.3 mb 0.00 in0.0 mm 0.00 in0.0 mm 0.00 in0.0 mm
04:00 AM 40.3°F4.6°C 29.9°F-1.2°C 66% 14.2 mph WSW22.9 kmh WSW 28.0 mph45.1 kmh 30.12 in1020.0 mb 0.00 in0.0 mm 0.00 in0.0 mm 0.00 in0.0 mm
04:05 AM 40.3°F4.6°C 29.9°F-1.2°C 66% 15.8 mph WSW25.4 kmh WSW 32.0 mph51.5 kmh 30.11 in1019.6 mb 0.00 in0.0 mm 0.00 in0.0 mm 0.00 in0.0 mm
04:10 AM 40.3°F4.6°C 29.5°F-1.4°C 65% 12.9 mph SW20.8 kmh SW 32.0 mph51.5 kmh 30.11 in1019.6 mb 0.00 in0.0 mm 0.00 in0.0 mm 0.00 in0.0 mm
04:15 AM 40.3°F4.6°C 29.5°F-1.4°C 65% 16.4 mph SW26.4 kmh SW 30.0 mph48.3 kmh 30.11 in1019.6 mb 0.00 in0.0 mm 0.00 in0.0 mm 0.00 in0.0 mm
04:20 AM 40.1°F4.5°C 29.7°F-1.3°C 66% 12.2 mph WSW19.6 kmh WSW 27.0 mph43.5 kmh 30.11 in1019.6 mb 0.00 in0.0 mm 0.00 in0.0 mm 0.00 in0.0 mm
04:25 AM 40.1°F4.5°C 29.7°F-1.3°C 66% 12.2 mph WSW19.6 kmh WSW 25.0 mph40.2 kmh 30.11 in1019.6 mb 0.00 in0.0 mm 0.00 in0.0 mm 0.00 in0.0 mm
04:30 AM 40.0°F4.4°C 29.6°F-1.3°C 66% 11.5 mph SW18.5 kmh SW 25.0 mph40.2 kmh 30.12 in1020.0 mb 0.00 in0.0 mm 0.00 in0.0 mm 0.00 in0.0 mm
04:35 AM 40.0°F4.4°C 29.6°F-1.3°C 66% 9.0 mph SW14.5 kmh SW 20.0 mph32.2 kmh 30.11 in1019.6 mb 0.00 in0.0 mm 0.00 in0.0 mm 0.00 in0.0 mm
04:40 AM 39.9°F4.4°C 29.5°F-1.4°C 66% 7.2 mph SW11.6 kmh SW 18.0 mph29.0 kmh 30.12 in1020.0 mb 0.00 in0.0 mm 0.00 in0.0 mm 0.00 in0.0 mm
04:45 AM 39.8°F4.3°C 29.4°F-1.4°C 66% 7.6 mph SSW12.2 kmh SSW 16.0 mph25.7 kmh 30.12 in1020.0 mb 0.00 in0.0 mm 0.00 in0.0 mm 0.00 in0.0 mm
04:50 AM 39.8°F4.3°C 29.4°F-1.4°C 66% 6.7 mph SSW10.8 kmh SSW 16.0 mph25.7 kmh 30.13 in1020.3 mb 0.00 in0.0 mm 0.00 in0.0 mm 0.00 in0.0 mm
04:55 AM 39.9°F4.4°C 29.1°F-1.6°C 65% 8.3 mph SSW13.4 kmh SSW 17.0 mph27.4 kmh 30.12 in1020.0 mb 0.00 in0.0 mm 0.00 in0.0 mm 0.00 in0.0 mm
05:00 AM 40.0°F4.4°C 29.2°F-1.6°C 65% 11.1 mph SW17.9 kmh SW 19.0 mph30.6 kmh 30.11 in1019.6 mb 0.00 in0.0 mm 0.00 in0.0 mm 0.00 in0.0 mm
05:05 AM 40.1°F4.5°C 29.3°F-1.5°C 65% 10.4 mph SSW16.7 kmh SSW 21.0 mph33.8 kmh 30.11 in1019.6 mb 0.00 in0.0 mm 0.00 in0.0 mm 0.00 in0.0 mm
05:10 AM 40.1°F4.5°C 29.3°F-1.5°C 65% 10.2 mph SW16.4 kmh SW 21.0 mph33.8 kmh 30.12 in1020.0 mb 0.00 in0.0 mm 0.00 in0.0 mm 0.00 in0.0 mm
05:15 AM 40.2°F4.6°C 29.4°F-1.4°C 65% 13.0 mph SW20.9 kmh SW 28.0 mph45.1 kmh 30.12 in1020.0 mb 0.00 in0.0 mm 0.00 in0.0 mm 0.00 in0.0 mm
05:20 AM 40.1°F4.5°C 29.3°F-1.5°C 65% 12.1 mph SW19.5 kmh SW 28.0 mph45.1 kmh 30.11 in1019.6 mb 0.00 in0.0 mm 0.00 in0.0 mm 0.00 in0.0 mm
05:25 AM 39.9°F4.4°C 29.5°F-1.4°C 66% 12.0 mph SW19.3 kmh SW 20.0 mph32.2 kmh 30.11 in1019.6 mb 0.00 in0.0 mm 0.00 in0.0 mm 0.00 in0.0 mm
05:30 AM 39.8°F4.3°C 29.4°F-1.4°C 66% 9.3 mph SW15.0 kmh SW 20.0 mph32.2 kmh 30.12 in1020.0 mb 0.00 in0.0 mm 0.00 in0.0 mm 0.00 in0.0 mm
05:35 AM 39.7°F4.3°C 29.3°F-1.5°C 66% 3.7 mph SW6.0 kmh SW 15.0 mph24.1 kmh 30.13 in1020.3 mb 0.00 in0.0 mm 0.00 in0.0 mm 0.00 in0.0 mm
05:40 AM 39.7°F4.3°C 28.9°F-1.7°C 65% 4.7 mph SSW7.6 kmh SSW 12.0 mph19.3 kmh 30.13 in1020.3 mb 0.00 in0.0 mm 0.00 in0.0 mm 0.00 in0.0 mm
05:45 AM 39.8°F4.3°C 29.4°F-1.4°C 66% 6.0 mph SSW9.7 kmh SSW 13.0 mph20.9 kmh 30.12 in1020.0 mb 0.00 in0.0 mm 0.00 in0.0 mm 0.00 in0.0 mm
05:50 AM 39.8°F4.3°C 29.0°F-1.7°C 65% 8.8 mph SSW14.2 kmh SSW 15.0 mph24.1 kmh 30.11 in1019.6 mb 0.00 in0.0 mm 0.00 in0.0 mm 0.00 in0.0 mm
05:55 AM 39.9°F4.4°C 28.7°F-1.8°C 64% 5.9 mph SW9.5 kmh SW 15.0 mph24.1 kmh 30.11 in1019.6 mb 0.00 in0.0 mm 0.00 in0.0 mm 0.00 in0.0 mm
06:00 AM 39.9°F4.4°C 29.1°F-1.6°C 65% 5.2 mph SW8.4 kmh SW 14.0 mph22.5 kmh 30.11 in1019.6 mb 0.00 in0.0 mm 0.00 in0.0 mm 0.00 in0.0 mm
06:05 AM 39.8°F4.3°C 29.0°F-1.7°C 65% 6.1 mph SW9.8 kmh SW 15.0 mph24.1 kmh 30.11 in1019.6 mb 0.00 in0.0 mm 0.00 in0.0 mm 0.00 in0.0 mm
06:10 AM 39.9°F4.4°C 28.7°F-1.8°C 64% 6.5 mph SW10.5 kmh SW 15.0 mph24.1 kmh 30.11 in1019.6 mb 0.00 in0.0 mm 0.00 in0.0 mm 0.00 in0.0 mm
06:15 AM 39.8°F4.3°C 29.0°F-1.7°C 65% 9.4 mph S15.1 kmh S 15.0 mph24.1 kmh 30.11 in1019.6 mb 0.00 in0.0 mm 0.00 in0.0 mm 0.00 in0.0 mm
06:20 AM 39.8°F4.3°C 28.6°F-1.9°C 64% 9.0 mph SSW14.5 kmh SSW 15.0 mph24.1 kmh 30.11 in1019.6 mb 0.00 in0.0 mm 0.00 in0.0 mm 0.00 in0.0 mm
06:25 AM 39.8°F4.3°C 28.6°F-1.9°C 64% 10.2 mph SSW16.4 kmh SSW 18.0 mph29.0 kmh 30.10 in1019.3 mb 0.00 in0.0 mm 0.00 in0.0 mm 0.00 in0.0 mm
06:30 AM 39.9°F4.4°C 28.3°F-2.1°C 63% 10.3 mph SSW16.6 kmh SSW 18.0 mph29.0 kmh 30.10 in1019.3 mb 0.00 in0.0 mm 0.00 in0.0 mm 0.00 in0.0 mm
06:35 AM 39.7°F4.3°C 28.5°F-1.9°C 64% 11.4 mph SW18.3 kmh SW 20.0 mph32.2 kmh 30.10 in1019.3 mb 0.00 in0.0 mm 0.00 in0.0 mm 0.00 in0.0 mm
06:40 AM 39.5°F4.2°C 28.7°F-1.8°C 65% 8.0 mph SW12.9 kmh SW 20.0 mph32.2 kmh 30.11 in1019.6 mb 0.00 in0.0 mm 0.00 in0.0 mm 0.00 in0.0 mm
06:45 AM 39.5°F4.2°C 28.3°F-2.1°C 64% 9.0 mph SW14.5 kmh SW 17.0 mph27.4 kmh 30.11 in1019.6 mb 0.00 in0.0 mm 0.00 in0.0 mm 0.00 in0.0 mm
06:50 AM 39.6°F4.2°C 28.4°F-2.0°C 64% 9.7 mph WSW15.6 kmh WSW 20.0 mph32.2 kmh 30.11 in1019.6 mb 0.00 in0.0 mm 0.00 in0.0 mm 0.00 in0.0 mm
06:55 AM 39.5°F4.2°C 28.7°F-1.8°C 65% 7.2 mph WSW11.6 kmh WSW 20.0 mph32.2 kmh 30.10 in1019.3 mb 0.00 in0.0 mm 0.00 in0.0 mm 0.00 in0.0 mm
07:00 AM 39.7°F4.3°C 27.8°F-2.3°C 62% 11.6 mph WSW18.7 kmh WSW 24.0 mph38.6 kmh 30.10 in1019.3 mb 0.00 in0.0 mm 0.00 in0.0 mm 0.00 in0.0 mm
07:05 AM 40.1°F4.5°C 27.7°F-2.4°C 61% 12.8 mph WSW20.6 kmh WSW 24.0 mph38.6 kmh 30.09 in1019.0 mb 0.00 in0.0 mm 0.00 in0.0 mm 0.00 in0.0 mm
07:10 AM 40.2°F4.6°C 27.4°F-2.6°C 60% 13.9 mph WSW22.4 kmh WSW 25.0 mph40.2 kmh 30.08 in1018.6 mb 0.00 in0.0 mm 0.00 in0.0 mm 0.00 in0.0 mm
07:15 AM 40.8°F4.9°C 26.3°F-3.2°C 56% 14.1 mph WSW22.7 kmh WSW 27.0 mph43.5 kmh 30.08 in1018.6 mb 0.00 in0.0 mm 0.00 in0.0 mm 0.00 in0.0 mm
07:20 AM 40.7°F4.8°C 26.7°F-2.9°C 57% 15.6 mph WSW25.1 kmh WSW 34.0 mph54.7 kmh 30.07 in1018.3 mb 0.00 in0.0 mm 0.00 in0.0 mm 0.00 in0.0 mm
07:25 AM 40.5°F4.7°C 27.3°F-2.6°C 59% 14.7 mph WSW23.7 kmh WSW 34.0 mph54.7 kmh 30.08 in1018.6 mb 0.00 in0.0 mm 0.00 in0.0 mm 0.00 in0.0 mm
07:30 AM 40.9°F4.9°C 26.9°F-2.8°C 57% 18.7 mph WNW30.1 kmh WNW 32.0 mph51.5 kmh 30.09 in1019.0 mb 0.00 in0.0 mm 0.00 in0.0 mm 0.00 in0.0 mm
07:35 AM 41.0°F5.0°C 26.1°F-3.3°C 55% 11.0 mph W17.7 kmh W 30.0 mph48.3 kmh 30.11 in1019.6 mb 0.00 in0.0 mm 0.00 in0.0 mm 0.00 in0.0 mm
07:40 AM 41.1°F5.1°C 26.6°F-3.0°C 56% 8.2 mph W13.2 kmh W 17.0 mph27.4 kmh 30.10 in1019.3 mb 0.00 in0.0 mm 0.00 in0.0 mm 0.00 in0.0 mm
07:45 AM 41.3°F5.2°C 26.4°F-3.1°C 55% 7.3 mph WSW11.7 kmh WSW 17.0 mph27.4 kmh 30.11 in1019.6 mb 0.00 in0.0 mm 0.00 in0.0 mm 0.00 in0.0 mm
07:50 AM 41.3°F5.2°C 25.9°F-3.4°C 54% 6.8 mph WSW10.9 kmh WSW 15.0 mph24.1 kmh 30.10 in1019.3 mb 0.00 in0.0 mm 0.00 in0.0 mm 0.00 in0.0 mm
07:55 AM 41.4°F5.2°C 25.1°F-3.8°C 52% 8.5 mph WSW13.7 kmh WSW 18.0 mph29.0 kmh 30.10 in1019.3 mb 0.00 in0.0 mm 0.00 in0.0 mm 0.00 in0.0 mm
08:00 AM 41.5°F5.3°C 24.7°F-4.1°C 51% 9.0 mph WSW14.5 kmh WSW 18.0 mph29.0 kmh 30.10 in1019.3 mb 0.00 in0.0 mm 0.00 in0.0 mm 0.00 in0.0 mm
08:05 AM 41.7°F5.4°C 25.4°F-3.7°C 52% 13.4 mph SW21.6 kmh SW 25.0 mph40.2 kmh 30.10 in1019.3 mb 0.00 in0.0 mm 0.00 in0.0 mm 0.00 in0.0 mm
08:10 AM 41.7°F5.4°C 25.4°F-3.7°C 52% 14.0 mph SW22.5 kmh SW 27.0 mph43.5 kmh 30.10 in1019.3 mb 0.00 in0.0 mm 0.00 in0.0 mm 0.00 in0.0 mm
08:15 AM 41.7°F5.4°C 25.8°F-3.4°C 53% 14.1 mph SW22.7 kmh SW 30.0 mph48.3 kmh 30.10 in1019.3 mb 0.00 in0.0 mm 0.00 in0.0 mm 0.00 in0.0 mm
08:20 AM 41.5°F5.3°C 26.1°F-3.3°C 54% 12.6 mph WSW20.3 kmh WSW 30.0 mph48.3 kmh 30.10 in1019.3 mb 0.00 in0.0 mm 0.00 in0.0 mm 0.00 in0.0 mm
08:25 AM 41.6°F5.3°C 25.8°F-3.4°C 53% 11.0 mph WSW17.7 kmh WSW 28.0 mph45.1 kmh 30.10 in1019.3 mb 0.00 in0.0 mm 0.00 in0.0 mm 0.00 in0.0 mm
08:30 AM 41.6°F5.3°C 25.8°F-3.4°C 53% 10.2 mph WSW16.4 kmh WSW 28.0 mph45.1 kmh 30.10 in1019.3 mb 0.00 in0.0 mm 0.00 in0.0 mm 0.00 in0.0 mm
08:35 AM 41.6°F5.3°C 25.8°F-3.4°C 53% 11.0 mph WSW17.7 kmh WSW 22.0 mph35.4 kmh 30.09 in1019.0 mb 0.00 in0.0 mm 0.00 in0.0 mm 0.00 in0.0 mm
08:40 AM 41.4°F5.2°C 26.0°F-3.3°C 54% 15.9 mph SW25.6 kmh SW 29.0 mph46.7 kmh 30.07 in1018.3 mb 0.00 in0.0 mm 0.00 in0.0 mm 0.00 in0.0 mm
08:45 AM 41.3°F5.2°C 25.9°F-3.4°C 54% 18.7 mph WSW30.1 kmh WSW 35.0 mph56.3 kmh 30.07 in1018.3 mb 0.00 in0.0 mm 0.00 in0.0 mm 0.00 in0.0 mm
08:50 AM 41.4°F5.2°C 26.0°F-3.3°C 54% 19.4 mph SW31.2 kmh SW 37.0 mph59.5 kmh 30.07 in1018.3 mb 0.00 in0.0 mm 0.00 in0.0 mm 0.00 in0.0 mm
08:55 AM 41.7°F5.4°C 25.4°F-3.7°C 52% 17.5 mph WSW28.2 kmh WSW 37.0 mph59.5 kmh 30.07 in1018.3 mb 0.00 in0.0 mm 0.00 in0.0 mm 0.00 in0.0 mm
09:00 AM 42.1°F5.6°C 24.8°F-4.0°C 50% 16.6 mph WSW26.7 kmh WSW 35.0 mph56.3 kmh 30.06 in1017.9 mb 0.00 in0.0 mm 0.00 in0.0 mm 0.00 in0.0 mm
09:05 AM 42.6°F5.9°C 24.3°F-4.3°C 48% 14.3 mph WSW23.0 kmh WSW 32.0 mph51.5 kmh 30.07 in1018.3 mb 0.00 in0.0 mm 0.00 in0.0 mm 0.00 in0.0 mm
09:10 AM 42.5°F5.8°C 23.7°F-4.6°C 47% 18.6 mph WSW29.9 kmh WSW 35.0 mph56.3 kmh 30.07 in1018.3 mb 0.00 in0.0 mm 0.00 in0.0 mm 0.00 in0.0 mm
09:15 AM 42.5°F5.8°C 23.7°F-4.6°C 47% 17.5 mph WSW28.2 kmh WSW 36.0 mph57.9 kmh 30.06 in1017.9 mb 0.00 in0.0 mm 0.00 in0.0 mm 0.00 in0.0 mm
09:20 AM 42.4°F5.8°C 23.1°F-4.9°C 46% 15.7 mph WSW25.3 kmh WSW 36.0 mph57.9 kmh 30.06 in1017.9 mb 0.00 in0.0 mm 0.00 in0.0 mm 0.00 in0.0 mm
09:25 AM 42.4°F5.8°C 22.6°F-5.2°C 45% 16.6 mph WSW26.7 kmh WSW 32.0 mph51.5 kmh 30.08 in1018.6 mb 0.00 in0.0 mm 0.00 in0.0 mm 0.00 in0.0 mm
09:30 AM 42.7°F5.9°C 22.3°F-5.4°C 44% 13.0 mph WSW20.9 kmh WSW 32.0 mph51.5 kmh 30.10 in1019.3 mb 0.00 in0.0 mm 0.00 in0.0 mm 0.00 in0.0 mm
09:35 AM 42.7°F5.9°C 21.2°F-6.0°C 42% 11.2 mph WSW18.0 kmh WSW 28.0 mph45.1 kmh 30.11 in1019.6 mb 0.00 in0.0 mm 0.00 in0.0 mm 0.00 in0.0 mm
09:40 AM 42.9°F6.1°C 20.3°F-6.5°C 40% 8.9 mph WSW14.3 kmh WSW 19.0 mph30.6 kmh 30.10 in1019.3 mb 0.00 in0.0 mm 0.00 in0.0 mm 0.00 in0.0 mm
09:45 AM 43.2°F6.2°C 19.9°F-6.7°C 39% 7.1 mph WSW11.4 kmh WSW 18.0 mph29.0 kmh 30.10 in1019.3 mb 0.00 in0.0 mm 0.00 in0.0 mm 0.00 in0.0 mm
09:50 AM 43.5°F6.4°C 19.0°F-7.2°C 37% 6.0 mph WSW9.7 kmh WSW 18.0 mph29.0 kmh 30.10 in1019.3 mb 0.00 in0.0 mm 0.00 in0.0 mm 0.00 in0.0 mm
09:55 AM 43.8°F6.6°C 19.2°F-7.1°C 37% 6.9 mph SW11.1 kmh SW 15.0 mph24.1 kmh 30.10 in1019.3 mb 0.00 in0.0 mm 0.00 in0.0 mm 0.00 in0.0 mm
10:00 AM 43.9°F6.6°C 19.3°F-7.1°C 37% 9.3 mph SW15.0 kmh SW 19.0 mph30.6 kmh 30.10 in1019.3 mb 0.00 in0.0 mm 0.00 in0.0 mm 0.00 in0.0 mm
10:05 AM 44.0°F6.7°C 19.4°F-7.0°C 37% 11.9 mph SW19.2 kmh SW 22.0 mph35.4 kmh 30.09 in1019.0 mb 0.00 in0.0 mm 0.00 in0.0 mm 0.00 in0.0 mm
10:10 AM 44.0°F6.7°C 19.4°F-7.0°C 37% 11.5 mph SW18.5 kmh SW 22.0 mph35.4 kmh 30.09 in1019.0 mb 0.00 in0.0 mm 0.00 in0.0 mm 0.00 in0.0 mm
10:15 AM 44.0°F6.7°C 20.0°F-6.7°C 38% 10.6 mph SW17.1 kmh SW 19.0 mph30.6 kmh 30.09 in1019.0 mb 0.00 in0.0 mm 0.00 in0.0 mm 0.00 in0.0 mm
10:20 AM 44.0°F6.7°C 20.0°F-6.7°C 38% 8.9 mph WSW14.3 kmh WSW 20.0 mph32.2 kmh 30.09 in1019.0 mb 0.00 in0.0 mm 0.00 in0.0 mm 0.00 in0.0 mm
10:25 AM 44.2°F6.8°C 19.6°F-6.9°C 37% 14.1 mph SW22.7 kmh SW 21.0 mph33.8 kmh 30.08 in1018.6 mb 0.00 in0.0 mm 0.00 in0.0 mm 0.00 in0.0 mm
10:30 AM 44.3°F6.8°C 19.0°F-7.2°C 36% 12.9 mph WSW20.8 kmh WSW 23.0 mph37.0 kmh 30.08 in1018.6 mb 0.00 in0.0 mm 0.00 in0.0 mm 0.00 in0.0 mm
10:35 AM 44.2°F6.8°C 19.6°F-6.9°C 37% 12.8 mph SW20.6 kmh SW 26.0 mph41.8 kmh 30.07 in1018.3 mb 0.00 in0.0 mm 0.00 in0.0 mm 0.00 in0.0 mm
10:40 AM 44.2°F6.8°C 20.2°F-6.6°C 38% 15.5 mph SW24.9 kmh SW 30.0 mph48.3 kmh 30.07 in1018.3 mb 0.00 in0.0 mm 0.00 in0.0 mm 0.00 in0.0 mm
10:45 AM 44.4°F6.9°C 19.8°F-6.8°C 37% 17.9 mph SW28.8 kmh SW 33.0 mph53.1 kmh 30.07 in1018.3 mb 0.00 in0.0 mm 0.00 in0.0 mm 0.00 in0.0 mm
10:50 AM 44.5°F6.9°C 19.9°F-6.7°C 37% 13.6 mph WSW21.9 kmh WSW 33.0 mph53.1 kmh 30.07 in1018.3 mb 0.00 in0.0 mm 0.00 in0.0 mm 0.00 in0.0 mm
10:55 AM 44.7°F7.1°C 20.0°F-6.7°C 37% 9.9 mph WSW15.9 kmh WSW 25.0 mph40.2 kmh 30.07 in1018.3 mb 0.00 in0.0 mm 0.00 in0.0 mm 0.00 in0.0 mm
11:00 AM 45.0°F7.2°C 20.3°F-6.5°C 37% 12.3 mph WSW19.8 kmh WSW 27.0 mph43.5 kmh 30.07 in1018.3 mb 0.00 in0.0 mm 0.00 in0.0 mm 0.00 in0.0 mm
11:05 AM 45.2°F7.3°C 20.5°F-6.4°C 37% 12.4 mph SW20.0 kmh SW 27.0 mph43.5 kmh 30.07 in1018.3 mb 0.00 in0.0 mm 0.00 in0.0 mm 0.00 in0.0 mm
11:10 AM 45.5°F7.5°C 20.8°F-6.2°C 37% 10.3 mph SW16.6 kmh SW 24.0 mph38.6 kmh 30.06 in1017.9 mb 0.00 in0.0 mm 0.00 in0.0 mm 0.00 in0.0 mm
11:15 AM 45.5°F7.5°C 21.4°F-5.9°C 38% 10.7 mph WSW17.2 kmh WSW 26.0 mph41.8 kmh 30.07 in1018.3 mb 0.00 in0.0 mm 0.00 in0.0 mm 0.00 in0.0 mm
11:20 AM 45.4°F7.4°C 21.9°F-5.6°C 39% 8.1 mph WSW13.0 kmh WSW 26.0 mph41.8 kmh 30.07 in1018.3 mb 0.00 in0.0 mm 0.00 in0.0 mm 0.00 in0.0 mm
11:25 AM 45.5°F7.5°C 22.0°F-5.6°C 39% 8.2 mph SW13.2 kmh SW 21.0 mph33.8 kmh 30.06 in1017.9 mb 0.00 in0.0 mm 0.00 in0.0 mm 0.00 in0.0 mm
11:30 AM 45.6°F7.6°C 22.1°F-5.5°C 39% 8.6 mph WSW13.8 kmh WSW 21.0 mph33.8 kmh 30.05 in1017.6 mb 0.00 in0.0 mm 0.00 in0.0 mm 0.00 in0.0 mm
11:35 AM 45.6°F7.6°C 22.1°F-5.5°C 39% 7.4 mph W11.9 kmh W 20.0 mph32.2 kmh 30.05 in1017.6 mb 0.00 in0.0 mm 0.00 in0.0 mm 0.00 in0.0 mm
11:40 AM 45.6°F7.6°C 22.1°F-5.5°C 39% 8.7 mph SW14.0 kmh SW 17.0 mph27.4 kmh 30.05 in1017.6 mb 0.00 in0.0 mm 0.00 in0.0 mm 0.00 in0.0 mm
11:45 AM 45.8°F7.7°C 21.7°F-5.7°C 38% 6.1 mph SW9.8 kmh SW 17.0 mph27.4 kmh 30.04 in1017.3 mb 0.00 in0.0 mm 0.00 in0.0 mm 0.00 in0.0 mm
11:50 AM 45.9°F7.7°C 21.7°F-5.7°C 38% 3.1 mph S5.0 kmh S 14.0 mph22.5 kmh 30.05 in1017.6 mb 0.00 in0.0 mm 0.00 in0.0 mm 0.00 in0.0 mm
11:55 AM 46.1°F7.8°C 21.9°F-5.6°C 38% 5.0 mph NNE8.0 kmh NNE 16.0 mph25.7 kmh 30.04 in1017.3 mb 0.00 in0.0 mm 0.00 in0.0 mm 0.00 in0.0 mm
12:00 PM 46.0°F7.8°C 22.4°F-5.3°C 39% 7.0 mph W11.3 kmh W 17.0 mph27.4 kmh 30.03 in1016.9 mb 0.00 in0.0 mm 0.00 in0.0 mm 0.00 in0.0 mm
12:05 PM 45.7°F7.6°C 22.8°F-5.1°C 40% 7.3 mph WSW11.7 kmh WSW 18.0 mph29.0 kmh 30.03 in1016.9 mb 0.00 in0.0 mm 0.00 in0.0 mm 0.00 in0.0 mm
12:10 PM 45.6°F7.6°C 22.1°F-5.5°C 39% 5.8 mph SW9.3 kmh SW 18.0 mph29.0 kmh 30.03 in1016.9 mb 0.00 in0.0 mm 0.00 in0.0 mm 0.00 in0.0 mm
12:15 PM 45.7°F7.6°C 22.2°F-5.4°C 39% 4.7 mph NW7.6 kmh NW 17.0 mph27.4 kmh 30.02 in1016.6 mb 0.00 in0.0 mm 0.00 in0.0 mm 0.00 in0.0 mm
12:20 PM 45.8°F7.7°C 21.0°F-6.1°C 37% 7.0 mph W11.3 kmh W 22.0 mph35.4 kmh 30.01 in1016.3 mb 0.00 in0.0 mm 0.00 in0.0 mm 0.00 in0.0 mm
12:25 PM 46.1°F7.8°C 21.9°F-5.6°C 38% 12.6 mph W20.3 kmh W 26.0 mph41.8 kmh 30.01 in1016.3 mb 0.00 in0.0 mm 0.00 in0.0 mm 0.00 in0.0 mm
12:30 PM 46.3°F7.9°C 21.5°F-5.8°C 37% 13.5 mph WNW21.7 kmh WNW 32.0 mph51.5 kmh 30.00 in1015.9 mb 0.00 in0.0 mm 0.00 in0.0 mm 0.00 in0.0 mm
12:35 PM 46.7°F8.2°C 21.2°F-6.0°C 36% 13.5 mph WNW21.7 kmh WNW 32.0 mph51.5 kmh 29.99 in1015.6 mb 0.00 in0.0 mm 0.00 in0.0 mm 0.00 in0.0 mm
12:40 PM 47.1°F8.4°C 20.9°F-6.2°C 35% 13.6 mph WNW21.9 kmh WNW 31.0 mph49.9 kmh 29.97 in1014.9 mb 0.00 in0.0 mm 0.00 in0.0 mm 0.00 in0.0 mm
12:45 PM 47.5°F8.6°C 20.5°F-6.4°C 34% 16.3 mph WNW26.2 kmh WNW 33.0 mph53.1 kmh 29.97 in1014.9 mb 0.00 in0.0 mm 0.00 in0.0 mm 0.00 in0.0 mm
12:50 PM 47.8°F8.8°C 20.1°F-6.6°C 33% 15.8 mph W25.4 kmh W 36.0 mph57.9 kmh 29.96 in1014.6 mb 0.00 in0.0 mm 0.00 in0.0 mm 0.00 in0.0 mm
12:55 PM 47.8°F8.8°C 20.8°F-6.2°C 34% 21.2 mph W34.1 kmh W 39.0 mph62.8 kmh 29.95 in1014.2 mb 0.00 in0.0 mm 0.00 in0.0 mm 0.00 in0.0 mm
01:00 PM 47.8°F8.8°C 20.1°F-6.6°C 33% 17.9 mph W28.8 kmh W 39.0 mph62.8 kmh 29.95 in1014.2 mb 0.00 in0.0 mm 0.00 in0.0 mm 0.00 in0.0 mm
01:05 PM 47.7°F8.7°C 20.0°F-6.7°C 33% 20.1 mph W32.3 kmh W 39.0 mph62.8 kmh 29.96 in1014.6 mb 0.00 in0.0 mm 0.00 in0.0 mm 0.00 in0.0 mm
01:10 PM 47.9°F8.8°C 19.5°F-6.9°C 32% 17.8 mph W28.6 kmh W 39.0 mph62.8 kmh 29.96 in1014.6 mb 0.00 in0.0 mm 0.00 in0.0 mm 0.00 in0.0 mm
01:15 PM 47.9°F8.8°C 20.2°F-6.6°C 33% 14.4 mph W23.2 kmh W 36.0 mph57.9 kmh 29.96 in1014.6 mb 0.00 in0.0 mm 0.00 in0.0 mm 0.00 in0.0 mm
01:20 PM 48.6°F9.2°C 19.3°F-7.1°C 31% 16.4 mph WSW26.4 kmh WSW 36.0 mph57.9 kmh 29.96 in1014.6 mb 0.00 in0.0 mm 0.00 in0.0 mm 0.00 in0.0 mm
01:25 PM 49.2°F9.6°C 17.5°F-8.1°C 28% 15.8 mph WSW25.4 kmh WSW 31.0 mph49.9 kmh 29.97 in1014.9 mb 0.00 in0.0 mm 0.00 in0.0 mm 0.00 in0.0 mm
01:30 PM 49.5°F9.7°C 19.4°F-7.0°C 30% 13.9 mph W22.4 kmh W 31.0 mph49.9 kmh 29.97 in1014.9 mb 0.00 in0.0 mm 0.00 in0.0 mm 0.00 in0.0 mm
01:35 PM 49.3°F9.6°C 19.2°F-7.1°C 30% 13.5 mph W21.7 kmh W 31.0 mph49.9 kmh 29.98 in1015.2 mb 0.00 in0.0 mm 0.00 in0.0 mm 0.00 in0.0 mm
01:40 PM 49.1°F9.5°C 19.0°F-7.2°C 30% 15.1 mph WSW24.3 kmh WSW 31.0 mph49.9 kmh 29.97 in1014.9 mb 0.00 in0.0 mm 0.00 in0.0 mm 0.00 in0.0 mm
01:45 PM 49.5°F9.7°C 20.1°F-6.6°C 31% 13.6 mph WSW21.9 kmh WSW 29.0 mph46.7 kmh 29.97 in1014.9 mb 0.00 in0.0 mm 0.00 in0.0 mm 0.00 in0.0 mm
01:50 PM 50.2°F10.1°C 19.2°F-7.1°C 29% 13.9 mph W22.4 kmh W 29.0 mph46.7 kmh 29.97 in1014.9 mb 0.00 in0.0 mm 0.00 in0.0 mm 0.00 in0.0 mm
01:55 PM 50.8°F10.4°C 19.7°F-6.8°C 29% 12.7 mph WNW20.4 kmh WNW 29.0 mph46.7 kmh 29.97 in1014.9 mb 0.00 in0.0 mm 0.00 in0.0 mm 0.00 in0.0 mm
02:00 PM 51.5°F10.8°C 19.5°F-6.9°C 28% 9.4 mph W15.1 kmh W 27.0 mph43.5 kmh 29.97 in1014.9 mb 0.00 in0.0 mm 0.00 in0.0 mm 0.00 in0.0 mm
02:05 PM 51.5°F10.8°C 18.6°F-7.4°C 27% 10.1 mph W16.3 kmh W 21.0 mph33.8 kmh 29.98 in1015.2 mb 0.00 in0.0 mm 0.00 in0.0 mm 0.00 in0.0 mm
02:10 PM 51.4°F10.8°C 18.6°F-7.4°C 27% 8.5 mph WSW13.7 kmh WSW 21.0 mph33.8 kmh 29.97 in1014.9 mb 0.00 in0.0 mm 0.00 in0.0 mm 0.00 in0.0 mm
02:15 PM 51.4°F10.8°C 18.6°F-7.4°C 27% 14.0 mph WSW22.5 kmh WSW 31.0 mph49.9 kmh 29.96 in1014.6 mb 0.00 in0.0 mm 0.00 in0.0 mm 0.00 in0.0 mm
02:20 PM 51.7°F10.9°C 17.9°F-7.8°C 26% 13.0 mph WSW20.9 kmh WSW 31.0 mph49.9 kmh 29.95 in1014.2 mb 0.00 in0.0 mm 0.00 in0.0 mm 0.00 in0.0 mm
02:25 PM 51.5°F10.8°C 19.5°F-6.9°C 28% 14.4 mph W23.2 kmh W 28.0 mph45.1 kmh 29.95 in1014.2 mb 0.00 in0.0 mm 0.00 in0.0 mm 0.00 in0.0 mm
02:30 PM 50.8°F10.4°C 17.2°F-8.2°C 26% 14.4 mph WSW23.2 kmh WSW 28.0 mph45.1 kmh 29.96 in1014.6 mb 0.00 in0.0 mm 0.00 in0.0 mm 0.00 in0.0 mm
02:35 PM 50.5°F10.3°C 17.8°F-7.9°C 27% 12.4 mph W20.0 kmh W 27.0 mph43.5 kmh 29.96 in1014.6 mb 0.00 in0.0 mm 0.00 in0.0 mm 0.00 in0.0 mm
02:40 PM 50.2°F10.1°C 17.5°F-8.1°C 27% 16.0 mph WNW25.7 kmh WNW 32.0 mph51.5 kmh 29.95 in1014.2 mb 0.00 in0.0 mm 0.00 in0.0 mm 0.00 in0.0 mm
02:45 PM 50.1°F10.1°C 19.1°F-7.2°C 29% 15.3 mph WNW24.6 kmh WNW 32.0 mph51.5 kmh 29.96 in1014.6 mb 0.00 in0.0 mm 0.00 in0.0 mm 0.00 in0.0 mm
02:50 PM 50.2°F10.1°C 19.2°F-7.1°C 29% 10.7 mph WNW17.2 kmh WNW 26.0 mph41.8 kmh 29.96 in1014.6 mb 0.00 in0.0 mm 0.00 in0.0 mm 0.00 in0.0 mm
02:55 PM 50.3°F10.2°C 18.5°F-7.5°C 28% 13.3 mph NW21.4 kmh NW 35.0 mph56.3 kmh 29.96 in1014.6 mb 0.00 in0.0 mm 0.00 in0.0 mm 0.00 in0.0 mm
03:00 PM 50.1°F10.1°C 18.3°F-7.6°C 28% 10.7 mph W17.2 kmh W 35.0 mph56.3 kmh 29.96 in1014.6 mb 0.00 in0.0 mm 0.00 in0.0 mm 0.00 in0.0 mm
03:05 PM 49.7°F9.8°C 17.9°F-7.8°C 28% 10.8 mph W17.4 kmh W 27.0 mph43.5 kmh 29.95 in1014.2 mb 0.00 in0.0 mm 0.00 in0.0 mm 0.00 in0.0 mm
03:10 PM 49.6°F9.8°C 18.7°F-7.4°C 29% 9.0 mph W14.5 kmh W 27.0 mph43.5 kmh 29.95 in1014.2 mb 0.00 in0.0 mm 0.00 in0.0 mm 0.00 in0.0 mm
03:15 PM 49.6°F9.8°C 18.7°F-7.4°C 29% 8.1 mph WNW13.0 kmh WNW 21.0 mph33.8 kmh 29.95 in1014.2 mb 0.00 in0.0 mm 0.00 in0.0 mm 0.00 in0.0 mm
03:20 PM 49.7°F9.8°C 17.9°F-7.8°C 28% 8.6 mph W13.8 kmh W 16.0 mph25.7 kmh 29.94 in1013.9 mb 0.00 in0.0 mm 0.00 in0.0 mm 0.00 in0.0 mm
03:25 PM 49.9°F9.9°C 18.1°F-7.7°C 28% 5.7 mph W9.2 kmh W 15.0 mph24.1 kmh 29.94 in1013.9 mb 0.00 in0.0 mm 0.00 in0.0 mm 0.00 in0.0 mm
03:30 PM 50.0°F10.0°C 18.2°F-7.7°C 28% 4.3 mph WNW6.9 kmh WNW 13.0 mph20.9 kmh 29.93 in1013.5 mb 0.00 in0.0 mm 0.00 in0.0 mm 0.00 in0.0 mm
03:35 PM 49.8°F9.9°C 18.8°F-7.3°C 29% 6.2 mph NW10.0 kmh NW 15.0 mph24.1 kmh 29.93 in1013.5 mb 0.00 in0.0 mm 0.00 in0.0 mm 0.00 in0.0 mm
03:40 PM 49.6°F9.8°C 17.9°F-7.8°C 28% 7.7 mph N12.4 kmh N 15.0 mph24.1 kmh 29.93 in1013.5 mb 0.00 in0.0 mm 0.00 in0.0 mm 0.00 in0.0 mm
03:45 PM 49.6°F9.8°C 17.9°F-7.8°C 28% 4.3 mph NW6.9 kmh NW 15.0 mph24.1 kmh 29.93 in1013.5 mb 0.00 in0.0 mm 0.00 in0.0 mm 0.00 in0.0 mm
03:50 PM 49.6°F9.8°C 17.9°F-7.8°C 28% 5.4 mph NW8.7 kmh NW 12.0 mph19.3 kmh 29.93 in1013.5 mb 0.00 in0.0 mm 0.00 in0.0 mm 0.00 in0.0 mm
03:55 PM 49.7°F9.8°C 17.9°F-7.8°C 28% 2.6 mph NW4.2 kmh NW 11.0 mph17.7 kmh 29.93 in1013.5 mb 0.00 in0.0 mm 0.00 in0.0 mm 0.00 in0.0 mm
04:00 PM 49.8°F9.9°C 18.0°F-7.8°C 28% 5.5 mph N8.9 kmh N 10.0 mph16.1 kmh 29.93 in1013.5 mb 0.00 in0.0 mm 0.00 in0.0 mm 0.00 in0.0 mm
04:05 PM 49.5°F9.7°C 18.6°F-7.4°C 29% 4.8 mph N7.7 kmh N 10.0 mph16.1 kmh 29.93 in1013.5 mb 0.00 in0.0 mm 0.00 in0.0 mm 0.00 in0.0 mm
04:10 PM 49.5°F9.7°C 15.2°F-9.3°C 25% 5.8 mph N9.3 kmh N 12.0 mph19.3 kmh 29.93 in1013.5 mb 0.00 in0.0 mm 0.00 in0.0 mm 0.00 in0.0 mm
04:15 PM 49.6°F9.8°C 17.0°F-8.3°C 27% 4.7 mph N7.6 kmh N 12.0 mph19.3 kmh 29.93 in1013.5 mb 0.00 in0.0 mm 0.00 in0.0 mm 0.00 in0.0 mm
04:20 PM 49.8°F9.9°C 15.4°F-9.2°C 25% 5.8 mph N9.3 kmh N 12.0 mph19.3 kmh 29.94 in1013.9 mb 0.00 in0.0 mm 0.00 in0.0 mm 0.00 in0.0 mm
04:25 PM 49.7°F9.8°C 17.1°F-8.3°C 27% 3.6 mph NNE5.8 kmh NNE 12.0 mph19.3 kmh 29.94 in1013.9 mb 0.00 in0.0 mm 0.00 in0.0 mm 0.00 in0.0 mm
04:30 PM 49.3°F9.6°C 17.6°F-8.0°C 28% 7.5 mph N12.1 kmh N 12.0 mph19.3 kmh 29.94 in1013.9 mb 0.00 in0.0 mm 0.00 in0.0 mm 0.00 in0.0 mm
04:35 PM 49.0°F9.4°C 17.3°F-8.2°C 28% 6.5 mph N10.5 kmh N 13.0 mph20.9 kmh 29.95 in1014.2 mb 0.00 in0.0 mm 0.00 in0.0 mm 0.00 in0.0 mm
04:40 PM 48.7°F9.3°C 18.7°F-7.4°C 30% 4.1 mph N6.6 kmh N 13.0 mph20.9 kmh 29.94 in1013.9 mb 0.00 in0.0 mm 0.00 in0.0 mm 0.00 in0.0 mm
04:45 PM 48.2°F9.0°C 18.2°F-7.7°C 30% 6.3 mph N10.1 kmh N 13.0 mph20.9 kmh 29.94 in1013.9 mb 0.00 in0.0 mm 0.00 in0.0 mm 0.00 in0.0 mm
04:50 PM 48.0°F8.9°C 17.3°F-8.2°C 29% 8.0 mph N12.9 kmh N 18.0 mph29.0 kmh 29.93 in1013.5 mb 0.00 in0.0 mm 0.00 in0.0 mm 0.00 in0.0 mm
04:55 PM 47.9°F8.8°C 17.2°F-8.2°C 29% 9.3 mph NNW15.0 kmh NNW 18.0 mph29.0 kmh 29.93 in1013.5 mb 0.00 in0.0 mm 0.00 in0.0 mm 0.00 in0.0 mm
05:00 PM 48.3°F9.1°C 16.7°F-8.5°C 28% 7.4 mph WNW11.9 kmh WNW 17.0 mph27.4 kmh 29.93 in1013.5 mb 0.00 in0.0 mm 0.00 in0.0 mm 0.00 in0.0 mm
05:05 PM 48.3°F9.1°C 16.7°F-8.5°C 28% 9.5 mph N15.3 kmh N 18.0 mph29.0 kmh 29.92 in1013.2 mb 0.00 in0.0 mm 0.00 in0.0 mm 0.00 in0.0 mm
05:10 PM 48.3°F9.1°C 17.5°F-8.1°C 29% 4.2 mph NNW6.8 kmh NNW 18.0 mph29.0 kmh 29.92 in1013.2 mb 0.00 in0.0 mm 0.00 in0.0 mm 0.00 in0.0 mm
05:15 PM 47.9°F8.8°C 18.0°F-7.8°C 30% 5.4 mph N8.7 kmh N 14.0 mph22.5 kmh 29.93 in1013.5 mb 0.00 in0.0 mm 0.00 in0.0 mm 0.00 in0.0 mm
05:20 PM 47.7°F8.7°C 17.8°F-7.9°C 30% 8.6 mph N13.8 kmh N 17.0 mph27.4 kmh 29.92 in1013.2 mb 0.00 in0.0 mm 0.00 in0.0 mm 0.00 in0.0 mm
05:25 PM 47.8°F8.8°C 17.9°F-7.8°C 30% 5.7 mph NNW9.2 kmh NNW 17.0 mph27.4 kmh 29.92 in1013.2 mb 0.00 in0.0 mm 0.00 in0.0 mm 0.00 in0.0 mm
05:30 PM 47.6°F8.7°C 18.5°F-7.5°C 31% 2.7 mph ENE4.3 kmh ENE 17.0 mph27.4 kmh 29.91 in1012.9 mb 0.00 in0.0 mm 0.00 in0.0 mm 0.00 in0.0 mm
05:35 PM 47.2°F8.4°C 18.9°F-7.3°C 32% 4.4 mph NNE7.1 kmh NNE 13.0 mph20.9 kmh 29.91 in1012.9 mb 0.00 in0.0 mm 0.00 in0.0 mm 0.00 in0.0 mm
05:40 PM 46.6°F8.1°C 19.1°F-7.2°C 33% 5.8 mph NNE9.3 kmh NNE 13.0 mph20.9 kmh 29.91 in1012.9 mb 0.00 in0.0 mm 0.00 in0.0 mm 0.00 in0.0 mm
05:45 PM 46.4°F8.0°C 18.2°F-7.7°C 32% 4.0 mph N6.4 kmh N 12.0 mph19.3 kmh 29.90 in1012.5 mb 0.00 in0.0 mm 0.00 in0.0 mm 0.00 in0.0 mm
05:50 PM 46.4°F8.0°C 18.9°F-7.3°C 33% 2.4 mph N3.9 kmh N 12.0 mph19.3 kmh 29.90 in1012.5 mb 0.00 in0.0 mm 0.00 in0.0 mm 0.00 in0.0 mm
05:55 PM 46.1°F7.8°C 19.3°F-7.1°C 34% 3.8 mph NNE6.1 kmh NNE 9.0 mph14.5 kmh 29.90 in1012.5 mb 0.00 in0.0 mm 0.00 in0.0 mm 0.00 in0.0 mm
06:00 PM 45.9°F7.7°C 19.1°F-7.2°C 34% 3.1 mph N5.0 kmh N 9.0 mph14.5 kmh 29.91 in1012.9 mb 0.00 in0.0 mm 0.00 in0.0 mm 0.00 in0.0 mm
06:05 PM 45.5°F7.5°C 19.5°F-6.9°C 35% 4.2 mph NE6.8 kmh NE 9.0 mph14.5 kmh 29.90 in1012.5 mb 0.00 in0.0 mm 0.00 in0.0 mm 0.00 in0.0 mm
06:10 PM 45.1°F7.3°C 19.1°F-7.2°C 35% 2.3 mph ENE3.7 kmh ENE 9.0 mph14.5 kmh 29.90 in1012.5 mb 0.00 in0.0 mm 0.00 in0.0 mm 0.00 in0.0 mm
06:15 PM 45.0°F7.2°C 19.0°F-7.2°C 35% 2.8 mph E4.5 kmh E 5.0 mph8.0 kmh 29.90 in1012.5 mb 0.00 in0.0 mm 0.00 in0.0 mm 0.00 in0.0 mm
06:20 PM 45.0°F7.2°C 19.0°F-7.2°C 35% 4.5 mph ESE7.2 kmh ESE 7.0 mph11.3 kmh 29.89 in1012.2 mb 0.00 in0.0 mm 0.00 in0.0 mm 0.00 in0.0 mm
06:25 PM 45.1°F7.3°C 17.7°F-7.9°C 33% 3.3 mph E5.3 kmh E 7.0 mph11.3 kmh 29.89 in1012.2 mb 0.00 in0.0 mm 0.00 in0.0 mm 0.00 in0.0 mm
06:30 PM 45.8°F7.7°C 18.4°F-7.6°C 33% 4.0 mph ESE6.4 kmh ESE 7.0 mph11.3 kmh 29.89 in1012.2 mb 0.00 in0.0 mm 0.00 in0.0 mm 0.00 in0.0 mm
06:35 PM 46.2°F7.9°C 18.7°F-7.4°C 33% 3.1 mph SE5.0 kmh SE 7.0 mph11.3 kmh 29.89 in1012.2 mb 0.00 in0.0 mm 0.00 in0.0 mm 0.00 in0.0 mm
06:40 PM 46.1°F7.8°C 18.6°F-7.4°C 33% 6.6 mph SE10.6 kmh SE 12.0 mph19.3 kmh 29.88 in1011.9 mb 0.00 in0.0 mm 0.00 in0.0 mm 0.00 in0.0 mm
06:45 PM 46.3°F7.9°C 18.8°F-7.3°C 33% 5.0 mph SSE8.0 kmh SSE 12.0 mph19.3 kmh 29.89 in1012.2 mb 0.00 in0.0 mm 0.00 in0.0 mm 0.00 in0.0 mm
06:50 PM 46.2°F7.9°C 18.7°F-7.4°C 33% 5.4 mph SSE8.7 kmh SSE 12.0 mph19.3 kmh 29.88 in1011.9 mb 0.00 in0.0 mm 0.00 in0.0 mm 0.00 in0.0 mm
06:55 PM 46.5°F8.1°C 19.0°F-7.2°C 33% 7.4 mph S11.9 kmh S 14.0 mph22.5 kmh 29.88 in1011.9 mb 0.00 in0.0 mm 0.00 in0.0 mm 0.00 in0.0 mm
07:00 PM 46.4°F8.0°C 19.6°F-6.9°C 34% 6.9 mph SSE11.1 kmh SSE 14.0 mph22.5 kmh 29.88 in1011.9 mb 0.00 in0.0 mm 0.00 in0.0 mm 0.00 in0.0 mm
07:05 PM 46.3°F7.9°C 19.5°F-6.9°C 34% 3.6 mph SE5.8 kmh SE 13.0 mph20.9 kmh 29.88 in1011.9 mb 0.00 in0.0 mm 0.00 in0.0 mm 0.00 in0.0 mm
07:10 PM 46.2°F7.9°C 19.4°F-7.0°C 34% 2.7 mph SE4.3 kmh SE 8.0 mph12.9 kmh 29.88 in1011.9 mb 0.00 in0.0 mm 0.00 in0.0 mm 0.00 in0.0 mm
07:15 PM 46.1°F7.8°C 20.0°F-6.7°C 35% 3.9 mph E6.3 kmh E 7.0 mph11.3 kmh 29.87 in1011.5 mb 0.00 in0.0 mm 0.00 in0.0 mm 0.00 in0.0 mm
07:20 PM 45.8°F7.7°C 19.7°F-6.8°C 35% 3.4 mph E5.5 kmh E 6.0 mph9.7 kmh 29.87 in1011.5 mb 0.00 in0.0 mm 0.00 in0.0 mm 0.00 in0.0 mm
07:25 PM 45.6°F7.6°C 19.5°F-6.9°C 35% 3.5 mph ESE5.6 kmh ESE 9.0 mph14.5 kmh 29.88 in1011.9 mb 0.00 in0.0 mm 0.00 in0.0 mm 0.00 in0.0 mm
07:30 PM 46.1°F7.8°C 20.0°F-6.7°C 35% 3.8 mph SSE6.1 kmh SSE 10.0 mph16.1 kmh 29.88 in1011.9 mb 0.00 in0.0 mm 0.00 in0.0 mm 0.00 in0.0 mm
07:35 PM 46.4°F8.0°C 19.6°F-6.9°C 34% 2.4 mph SE3.9 kmh SE 10.0 mph16.1 kmh 29.87 in1011.5 mb 0.00 in0.0 mm 0.00 in0.0 mm 0.00 in0.0 mm
07:40 PM 46.4°F8.0°C 20.3°F-6.5°C 35% 5.1 mph ESE8.2 kmh ESE 12.0 mph19.3 kmh 29.86 in1011.2 mb 0.00 in0.0 mm 0.00 in0.0 mm 0.00 in0.0 mm
07:45 PM 45.9°F7.7°C 19.8°F-6.8°C 35% 4.6 mph SE7.4 kmh SE 13.0 mph20.9 kmh 29.86 in1011.2 mb 0.00 in0.0 mm 0.00 in0.0 mm 0.00 in0.0 mm
07:50 PM 45.9°F7.7°C 20.5°F-6.4°C 36% 6.4 mph SW10.3 kmh SW 16.0 mph25.7 kmh 29.86 in1011.2 mb 0.00 in0.0 mm 0.00 in0.0 mm 0.00 in0.0 mm
07:55 PM 45.8°F7.7°C 19.7°F-6.8°C 35% 6.7 mph S10.8 kmh S 31.0 mph49.9 kmh 29.85 in1010.8 mb 0.00 in0.0 mm 0.00 in0.0 mm 0.00 in0.0 mm
08:00 PM 46.6°F8.1°C 20.4°F-6.4°C 35% 11.3 mph SW18.2 kmh SW 31.0 mph49.9 kmh 29.85 in1010.8 mb 0.00 in0.0 mm 0.00 in0.0 mm 0.00 in0.0 mm
08:05 PM 46.5°F8.1°C 20.3°F-6.5°C 35% 7.2 mph SW11.6 kmh SW 21.0 mph33.8 kmh 29.86 in1011.2 mb 0.00 in0.0 mm 0.00 in0.0 mm 0.00 in0.0 mm
08:10 PM 46.7°F8.2°C 20.5°F-6.4°C 35% 7.7 mph S12.4 kmh S 26.0 mph41.8 kmh 29.85 in1010.8 mb 0.00 in0.0 mm 0.00 in0.0 mm 0.00 in0.0 mm
08:15 PM 46.6°F8.1°C 21.1°F-6.1°C 36% 6.0 mph SW9.7 kmh SW 26.0 mph41.8 kmh 29.84 in1010.5 mb 0.00 in0.0 mm 0.00 in0.0 mm 0.00 in0.0 mm
08:20 PM 46.2°F7.9°C 20.7°F-6.3°C 36% 5.8 mph SSW9.3 kmh SSW 18.0 mph29.0 kmh 29.84 in1010.5 mb 0.00 in0.0 mm 0.00 in0.0 mm 0.00 in0.0 mm
08:25 PM 45.9°F7.7°C 21.1°F-6.1°C 37% 5.4 mph SSW8.7 kmh SSW 18.0 mph29.0 kmh 29.83 in1010.2 mb 0.00 in0.0 mm 0.00 in0.0 mm 0.00 in0.0 mm
08:30 PM 45.9°F7.7°C 21.1°F-6.1°C 37% 3.2 mph E5.1 kmh E 18.0 mph29.0 kmh 29.84 in1010.5 mb 0.00 in0.0 mm 0.00 in0.0 mm 0.00 in0.0 mm
08:35 PM 45.6°F7.6°C 20.8°F-6.2°C 37% 2.8 mph SE4.5 kmh SE 12.0 mph19.3 kmh 29.83 in1010.2 mb 0.00 in0.0 mm 0.00 in0.0 mm 0.00 in0.0 mm
08:40 PM 45.4°F7.4°C 20.7°F-6.3°C 37% 6.7 mph SW10.8 kmh SW 23.0 mph37.0 kmh 29.83 in1010.2 mb 0.00 in0.0 mm 0.00 in0.0 mm 0.00 in0.0 mm
08:45 PM 45.4°F7.4°C 20.7°F-6.3°C 37% 5.8 mph SE9.3 kmh SE 23.0 mph37.0 kmh 29.83 in1010.2 mb 0.00 in0.0 mm 0.00 in0.0 mm 0.00 in0.0 mm
08:50 PM 45.4°F7.4°C 21.3°F-5.9°C 38% 6.5 mph WSW10.5 kmh WSW 17.0 mph27.4 kmh 29.83 in1010.2 mb 0.00 in0.0 mm 0.00 in0.0 mm 0.00 in0.0 mm
08:55 PM 45.5°F7.5°C 21.4°F-5.9°C 38% 5.4 mph N8.7 kmh N 17.0 mph27.4 kmh 29.82 in1009.8 mb 0.00 in0.0 mm 0.00 in0.0 mm 0.00 in0.0 mm
09:00 PM 45.0°F7.2°C 20.9°F-6.2°C 38% 4.8 mph S7.7 kmh S 13.0 mph20.9 kmh 29.83 in1010.2 mb 0.00 in0.0 mm 0.00 in0.0 mm 0.00 in0.0 mm
09:05 PM 44.8°F7.1°C 21.4°F-5.9°C 39% 5.5 mph S8.9 kmh S 13.0 mph20.9 kmh 29.83 in1010.2 mb 0.00 in0.0 mm 0.00 in0.0 mm 0.00 in0.0 mm
09:10 PM 44.9°F7.2°C 21.5°F-5.8°C 39% 5.3 mph SSW8.5 kmh SSW 13.0 mph20.9 kmh 29.83 in1010.2 mb 0.00 in0.0 mm 0.00 in0.0 mm 0.00 in0.0 mm
09:15 PM 45.1°F7.3°C 21.6°F-5.8°C 39% 6.5 mph WSW10.5 kmh WSW 22.0 mph35.4 kmh 29.81 in1009.5 mb 0.00 in0.0 mm 0.00 in0.0 mm 0.00 in0.0 mm
09:20 PM 45.2°F7.3°C 21.1°F-6.1°C 38% 6.6 mph SW10.6 kmh SW 22.0 mph35.4 kmh 29.80 in1009.1 mb 0.00 in0.0 mm 0.00 in0.0 mm 0.00 in0.0 mm
09:25 PM 45.2°F7.3°C 21.1°F-6.1°C 38% 11.5 mph SSW18.5 kmh SSW 28.0 mph45.1 kmh 29.81 in1009.5 mb 0.00 in0.0 mm 0.00 in0.0 mm 0.00 in0.0 mm
09:30 PM 45.2°F7.3°C 21.1°F-6.1°C 38% 5.5 mph WSW8.9 kmh WSW 28.0 mph45.1 kmh 29.82 in1009.8 mb 0.00 in0.0 mm 0.00 in0.0 mm 0.00 in0.0 mm
09:35 PM 45.2°F7.3°C 21.1°F-6.1°C 38% 8.3 mph SW13.4 kmh SW 21.0 mph33.8 kmh 29.80 in1009.1 mb 0.00 in0.0 mm 0.00 in0.0 mm 0.00 in0.0 mm
09:40 PM 45.3°F7.4°C 21.2°F-6.0°C 38% 10.2 mph SW16.4 kmh SW 21.0 mph33.8 kmh 29.79 in1008.8 mb 0.00 in0.0 mm 0.00 in0.0 mm 0.00 in0.0 mm
09:45 PM 45.4°F7.4°C 21.9°F-5.6°C 39% 13.1 mph WSW21.1 kmh WSW 31.0 mph49.9 kmh 29.78 in1008.5 mb 0.00 in0.0 mm 0.00 in0.0 mm 0.00 in0.0 mm
09:50 PM 45.2°F7.3°C 21.7°F-5.7°C 39% 13.4 mph WSW21.6 kmh WSW 32.0 mph51.5 kmh 29.79 in1008.8 mb 0.00 in0.0 mm 0.00 in0.0 mm 0.00 in0.0 mm
09:55 PM 45.3°F7.4°C 21.8°F-5.7°C 39% 12.2 mph WSW19.6 kmh WSW 32.0 mph51.5 kmh 29.77 in1008.1 mb 0.00 in0.0 mm 0.00 in0.0 mm 0.00 in0.0 mm
10:00 PM 45.3°F7.4°C 21.8°F-5.7°C 39% 12.4 mph WSW20.0 kmh WSW 30.0 mph48.3 kmh 29.77 in1008.1 mb 0.00 in0.0 mm 0.00 in0.0 mm 0.00 in0.0 mm
10:05 PM 45.3°F7.4°C 21.2°F-6.0°C 38% 12.5 mph WSW20.1 kmh WSW 30.0 mph48.3 kmh 29.76 in1007.8 mb 0.00 in0.0 mm 0.00 in0.0 mm 0.00 in0.0 mm
10:10 PM 45.4°F7.4°C 21.3°F-5.9°C 38% 15.0 mph W24.1 kmh W 33.0 mph53.1 kmh 29.76 in1007.8 mb 0.00 in0.0 mm 0.00 in0.0 mm 0.00 in0.0 mm
10:15 PM 45.5°F7.5°C 21.4°F-5.9°C 38% 14.3 mph WSW23.0 kmh WSW 33.0 mph53.1 kmh 29.75 in1007.5 mb 0.00 in0.0 mm 0.00 in0.0 mm 0.00 in0.0 mm
10:20 PM 45.6°F7.6°C 21.5°F-5.8°C 38% 13.8 mph SW22.2 kmh SW 34.0 mph54.7 kmh 29.76 in1007.8 mb 0.00 in0.0 mm 0.00 in0.0 mm 0.00 in0.0 mm
10:25 PM 45.8°F7.7°C 21.0°F-6.1°C 37% 14.9 mph WSW24.0 kmh WSW 36.0 mph57.9 kmh 29.75 in1007.5 mb 0.00 in0.0 mm 0.00 in0.0 mm 0.00 in0.0 mm
10:30 PM 46.0°F7.8°C 21.2°F-6.0°C 37% 14.9 mph WSW24.0 kmh WSW 36.0 mph57.9 kmh 29.76 in1007.8 mb 0.00 in0.0 mm 0.00 in0.0 mm 0.00 in0.0 mm
10:35 PM 45.8°F7.7°C 21.0°F-6.1°C 37% 16.1 mph WNW25.9 kmh WNW 35.0 mph56.3 kmh 29.75 in1007.5 mb 0.00 in0.0 mm 0.00 in0.0 mm 0.00 in0.0 mm
10:40 PM 45.8°F7.7°C 21.0°F-6.1°C 37% 14.3 mph W23.0 kmh W 38.0 mph61.2 kmh 29.75 in1007.5 mb 0.00 in0.0 mm 0.00 in0.0 mm 0.00 in0.0 mm
10:45 PM 45.7°F7.6°C 20.3°F-6.5°C 36% 13.4 mph WSW21.6 kmh WSW 38.0 mph61.2 kmh 29.74 in1007.1 mb 0.00 in0.0 mm 0.00 in0.0 mm 0.00 in0.0 mm
10:50 PM 45.8°F7.7°C 20.4°F-6.4°C 36% 15.4 mph W24.8 kmh W 35.0 mph56.3 kmh 29.74 in1007.1 mb 0.00 in0.0 mm 0.00 in0.0 mm 0.00 in0.0 mm
10:55 PM 45.7°F7.6°C 20.3°F-6.5°C 36% 17.5 mph WSW28.2 kmh WSW 38.0 mph61.2 kmh 29.74 in1007.1 mb 0.00 in0.0 mm 0.00 in0.0 mm 0.00 in0.0 mm
11:00 PM 45.8°F7.7°C 19.7°F-6.8°C 35% 15.8 mph WSW25.4 kmh WSW 38.0 mph61.2 kmh 29.73 in1006.8 mb 0.00 in0.0 mm 0.00 in0.0 mm 0.00 in0.0 mm
11:05 PM 45.6°F7.6°C 20.2°F-6.6°C 36% 18.6 mph WSW29.9 kmh WSW 46.0 mph74.0 kmh 29.72 in1006.4 mb 0.00 in0.0 mm 0.00 in0.0 mm 0.00 in0.0 mm
11:10 PM 45.5°F7.5°C 20.1°F-6.6°C 36% 17.5 mph W28.2 kmh W 46.0 mph74.0 kmh 29.72 in1006.4 mb 0.00 in0.0 mm 0.00 in0.0 mm 0.00 in0.0 mm
11:15 PM 45.5°F7.5°C 20.1°F-6.6°C 36% 15.8 mph W25.4 kmh W 38.0 mph61.2 kmh 29.71 in1006.1 mb 0.00 in0.0 mm 0.00 in0.0 mm 0.00 in0.0 mm
11:20 PM 45.5°F7.5°C 19.5°F-6.9°C 35% 18.5 mph WSW29.8 kmh WSW 37.0 mph59.5 kmh 29.71 in1006.1 mb 0.00 in0.0 mm 0.00 in0.0 mm 0.00 in0.0 mm
11:25 PM 45.7°F7.6°C 19.6°F-6.9°C 35% 18.8 mph W30.3 kmh W 39.0 mph62.8 kmh 29.71 in1006.1 mb 0.00 in0.0 mm 0.00 in0.0 mm 0.00 in0.0 mm
11:30 PM 45.6°F7.6°C 20.2°F-6.6°C 36% 19.5 mph W31.4 kmh W 41.0 mph66.0 kmh 29.70 in1005.8 mb 0.00 in0.0 mm 0.00 in0.0 mm 0.00 in0.0 mm
11:35 PM 45.7°F7.6°C 20.3°F-6.5°C 36% 20.3 mph WSW32.7 kmh WSW 48.0 mph77.2 kmh 29.68 in1005.1 mb 0.00 in0.0 mm 0.00 in0.0 mm 0.00 in0.0 mm
11:40 PM 45.5°F7.5°C 20.1°F-6.6°C 36% 18.1 mph WSW29.1 kmh WSW 48.0 mph77.2 kmh 29.70 in1005.8 mb 0.00 in0.0 mm 0.00 in0.0 mm 0.00 in0.0 mm
11:45 PM 45.5°F7.5°C 20.1°F-6.6°C 36% 19.4 mph W31.2 kmh W 39.0 mph62.8 kmh 29.70 in1005.8 mb 0.00 in0.0 mm 0.00 in0.0 mm 0.00 in0.0 mm
11:50 PM 45.4°F7.4°C 20.0°F-6.7°C 36% 20.3 mph W32.7 kmh W 46.0 mph74.0 kmh 29.69 in1005.4 mb 0.00 in0.0 mm 0.00 in0.0 mm 0.00 in0.0 mm
11:55 PM 45.5°F7.5°C 19.5°F-6.9°C 35% 23.2 mph W37.3 kmh W 54.0 mph86.9 kmh 29.69 in1005.4 mb 0.00 in0.0 mm 0.00 in0.0 mm 0.00 in0.0 mm